createdAt,value
2022-11-10T00:03:59.068Z,2.83
2022-11-10T00:08:40.158Z,2.80
2022-11-10T00:13:22.802Z,2.70
2022-11-10T00:18:04.533Z,2.83
2022-11-10T00:22:44.933Z,2.95
2022-11-10T00:27:25.918Z,2.97
2022-11-10T00:32:07.152Z,2.67
2022-11-10T00:36:47.796Z,3.00
2022-11-10T00:41:28.437Z,3.10
2022-11-10T00:46:09.052Z,3.10
2022-11-10T00:50:49.952Z,3.17
2022-11-10T00:55:31.213Z,3.05
2022-11-10T01:00:12.445Z,2.72
2022-11-10T01:04:52.822Z,3.10
2022-11-10T01:09:34.088Z,2.67
2022-11-10T01:14:14.285Z,2.92
2022-11-10T01:19:01.162Z,2.83
2022-11-10T01:23:42.302Z,3.13
2022-11-10T01:28:22.873Z,3.55
2022-11-10T01:33:03.627Z,3.10
2022-11-10T01:37:45.527Z,3.42
2022-11-10T01:42:29.546Z,3.25
2022-11-10T01:47:09.871Z,4.10
2022-11-10T01:51:57.254Z,3.08
2022-11-10T01:56:43.032Z,3.30
2022-11-10T02:01:24.445Z,3.38
2022-11-10T02:06:07.796Z,3.65
2022-11-10T02:10:48.935Z,3.75
2022-11-10T02:15:29.623Z,3.58
2022-11-10T02:20:13.904Z,3.67
2022-11-10T02:24:54.353Z,4.00
2022-11-10T02:29:34.689Z,4.30
2022-11-10T02:34:15.659Z,4.13
2022-11-10T02:38:56.485Z,4.05
2022-11-10T02:43:38.501Z,4.15
2022-11-10T02:48:20.265Z,4.28
2022-11-10T02:53:00.915Z,4.38
2022-11-10T02:57:41.667Z,4.40
2022-11-10T03:02:22.214Z,3.97
2022-11-10T03:07:02.812Z,5.05
2022-11-10T03:11:44.070Z,4.65
2022-11-10T03:16:24.608Z,4.47
2022-11-10T03:21:05.437Z,4.40
2022-11-10T03:25:46.934Z,4.15
2022-11-10T03:30:27.822Z,4.40
2022-11-10T03:35:09.541Z,4.90
2022-11-10T03:39:50.352Z,4.75
2022-11-10T03:44:31.005Z,6.38
2022-11-10T03:49:11.631Z,5.47
2022-11-10T03:53:52.158Z,5.82
2022-11-10T03:58:32.868Z,5.90
2022-11-10T04:03:13.855Z,5.32
2022-11-10T04:08:22.757Z,5.13
2022-11-10T04:13:22.507Z,5.65
2022-11-10T04:18:21.856Z,5.88
2022-11-10T04:23:21.941Z,7.32
2022-11-10T04:28:03.274Z,7.15
2022-11-10T04:32:44.008Z,6.00
2022-11-10T04:37:24.586Z,6.32
2022-11-10T04:42:05.630Z,6.03
2022-11-10T04:46:46.155Z,6.38
2022-11-10T04:51:33.196Z,6.35
2022-11-10T04:56:20.211Z,6.72
2022-11-10T05:01:00.578Z,6.93
2022-11-10T05:05:42.240Z,6.38
2022-11-10T05:10:24.174Z,6.30
2022-11-10T05:15:05.375Z,6.25
2022-11-10T05:19:47.487Z,6.88
2022-11-10T05:24:28.568Z,6.60
2022-11-10T05:29:09.675Z,5.80
2022-11-10T05:33:50.172Z,6.22
2022-11-10T05:38:31.598Z,5.78
2022-11-10T05:43:12.065Z,6.40
2022-11-10T05:47:52.903Z,6.43
2022-11-10T05:52:34.301Z,6.45
2022-11-10T05:57:15.394Z,6.40
2022-11-10T06:01:56.174Z,7.03
2022-11-10T06:06:37.437Z,7.07
2022-11-10T06:11:17.656Z,7.22
2022-11-10T06:15:58.431Z,7.80
2022-11-10T06:20:39.455Z,7.00
2022-11-10T06:25:20.221Z,7.32
2022-11-10T06:30:00.842Z,7.68
2022-11-10T06:34:41.802Z,8.10
2022-11-10T06:39:22.387Z,8.27
2022-11-10T06:44:03.206Z,8.93
2022-11-10T06:48:44.366Z,9.52
2022-11-10T06:53:27.196Z,11.45
2022-11-10T06:58:09.262Z,10.40
2022-11-10T07:03:02.154Z,7.40
2022-11-10T07:07:43.793Z,5.35
2022-11-10T07:12:24.400Z,4.68
2022-11-10T07:17:05.676Z,4.13
2022-11-10T07:21:46.530Z,4.03
2022-11-10T07:26:28.140Z,4.35
2022-11-10T07:31:08.989Z,4.05
2022-11-10T07:35:57.906Z,4.03
2022-11-10T07:40:38.925Z,3.17
2022-11-10T07:45:21.375Z,3.42
2022-11-10T07:50:01.810Z,3.30
2022-11-10T07:54:42.678Z,3.40
2022-11-10T07:59:23.187Z,3.78
2022-11-10T08:04:04.145Z,3.13
2022-11-10T08:08:47.464Z,3.30
2022-11-10T08:13:27.662Z,2.65
2022-11-10T08:18:17.760Z,2.10
2022-11-10T08:23:05.151Z,1.73
2022-11-10T08:27:46.098Z,3.15
2022-11-10T08:32:27.116Z,2.35
2022-11-10T08:37:07.908Z,2.33
2022-11-10T08:41:50.264Z,2.40
2022-11-10T08:46:31.006Z,2.08
2022-11-10T08:51:11.921Z,1.88
2022-11-10T08:55:55.651Z,2.13
2022-11-10T09:00:36.815Z,2.05
2022-11-10T09:05:17.485Z,2.45
2022-11-10T09:10:06.588Z,2.63
2022-11-10T09:14:48.346Z,2.42
2022-11-10T09:19:29.530Z,2.42
2022-11-10T09:24:10.415Z,2.50
2022-11-10T09:28:50.900Z,2.40
2022-11-10T09:33:31.564Z,2.00
2022-11-10T09:38:12.654Z,2.15
2022-11-10T09:42:57.157Z,2.20
2022-11-10T09:48:03.162Z,2.00
2022-11-10T09:52:49.432Z,2.55
2022-11-10T09:57:30.317Z,1.73
2022-11-10T10:02:29.711Z,2.05
2022-11-10T10:07:41.799Z,2.17
2022-11-10T10:12:46.371Z,2.20
2022-11-10T10:18:04.043Z,1.60
2022-11-10T10:23:05.548Z,2.10
2022-11-10T10:27:51.415Z,1.98
2022-11-10T10:32:32.497Z,2.42
2022-11-10T10:37:26.923Z,2.25
2022-11-10T10:42:30.254Z,2.15
2022-11-10T10:47:11.480Z,1.92
2022-11-10T10:52:05.758Z,2.13
2022-11-10T10:56:47.639Z,1.85
2022-11-10T11:01:34.810Z,2.00
2022-11-10T11:06:15.624Z,2.67
2022-11-10T11:10:56.664Z,2.03
2022-11-10T11:15:37.821Z,2.60
2022-11-10T11:20:18.936Z,2.13
2022-11-10T11:25:30.133Z,2.38
2022-11-10T11:30:18.666Z,2.25
2022-11-10T11:35:31.612Z,2.25
2022-11-10T11:41:17.886Z,1.88
2022-11-10T11:46:18.821Z,2.13
2022-11-10T11:51:27.419Z,2.15
2022-11-10T11:56:14.241Z,2.40
2022-11-10T12:01:16.512Z,2.10
2022-11-10T12:06:21.521Z,2.97
2022-11-10T12:11:23.803Z,2.30
2022-11-10T12:16:31.361Z,2.08
2022-11-10T12:21:23.954Z,2.55
2022-11-10T12:26:47.640Z,2.00
2022-11-10T12:31:34.227Z,2.58
2022-11-10T12:36:18.963Z,2.60
2022-11-10T12:41:09.828Z,2.58
2022-11-10T12:45:57.746Z,2.55
2022-11-10T12:50:50.229Z,2.60
2022-11-10T12:55:46.349Z,2.45
2022-11-10T13:00:35.419Z,1.73
2022-11-10T13:05:15.900Z,2.28
2022-11-10T13:10:19.210Z,1.92
2022-11-10T13:15:00.296Z,3.05
2022-11-10T13:19:41.077Z,2.38
2022-11-10T13:24:27.224Z,2.30
2022-11-10T13:29:42.741Z,2.05
2022-11-10T13:34:31.196Z,2.20
2022-11-10T13:39:20.601Z,2.63
2022-11-10T13:44:02.976Z,2.38
2022-11-10T13:49:18.388Z,2.33
2022-11-10T13:54:18.723Z,2.08
2022-11-10T13:59:00.053Z,2.45
2022-11-10T14:03:46.701Z,2.33
2022-11-10T14:08:34.902Z,3.10
2022-11-10T14:13:41.534Z,3.45
2022-11-10T14:18:38.765Z,3.40
2022-11-10T14:23:42.476Z,2.47
2022-11-10T14:28:39.161Z,2.55
2022-11-10T14:33:21.426Z,2.80
2022-11-10T14:38:06.971Z,3.00
2022-11-10T14:42:48.360Z,3.17
2022-11-10T14:47:31.403Z,2.88
2022-11-10T14:52:15.377Z,3.03
2022-11-10T14:56:57.511Z,2.90
2022-11-10T15:01:49.261Z,2.80
2022-11-10T15:06:30.865Z,2.30
2022-11-10T15:11:49.963Z,2.75
2022-11-10T15:16:38.690Z,3.33
2022-11-10T15:21:22.507Z,3.28
2022-11-10T15:26:04.916Z,2.92
2022-11-10T15:31:14.212Z,3.08
2022-11-10T15:36:12.690Z,3.35
2022-11-10T15:41:15.018Z,2.92
2022-11-10T15:46:02.598Z,3.45
2022-11-10T15:50:50.691Z,3.40
2022-11-10T15:55:34.505Z,3.95
2022-11-10T16:00:16.137Z,3.35
2022-11-10T16:04:59.996Z,4.25
2022-11-10T16:09:40.845Z,4.47
2022-11-10T16:14:22.109Z,4.40
2022-11-10T16:19:03.198Z,4.57
2022-11-10T16:23:44.074Z,4.43
2022-11-10T16:28:28.756Z,5.13
2022-11-10T16:33:23.042Z,5.38
2022-11-10T16:38:13.216Z,4.85
2022-11-10T16:42:53.827Z,4.68
2022-11-10T16:47:34.770Z,4.80
2022-11-10T16:52:16.863Z,4.72
2022-11-10T16:57:26.613Z,4.80
2022-11-10T17:02:35.813Z,4.82
2022-11-10T17:07:19.689Z,4.20
2022-11-10T17:12:01.656Z,4.55
2022-11-10T17:16:45.469Z,4.88
2022-11-10T17:21:31.591Z,3.80
2022-11-10T17:26:16.735Z,3.97
2022-11-10T17:30:58.016Z,4.20
2022-11-10T17:35:51.943Z,4.75
2022-11-10T17:40:32.616Z,5.03
2022-11-10T17:45:27.147Z,5.05
2022-11-10T17:50:08.599Z,4.88
2022-11-10T17:54:49.545Z,4.68
2022-11-10T17:59:31.108Z,4.50
2022-11-10T18:04:15.858Z,4.88
2022-11-10T18:08:56.306Z,4.60
2022-11-10T18:13:38.969Z,4.97
2022-11-10T18:18:19.460Z,6.03
2022-11-10T18:23:00.660Z,5.43
2022-11-10T18:27:41.569Z,5.93
2022-11-10T18:32:23.414Z,5.95
2022-11-10T18:37:04.442Z,6.00
2022-11-10T18:41:50.980Z,6.00
2022-11-10T18:46:32.508Z,6.55
2022-11-10T18:51:13.411Z,6.88
2022-11-10T18:55:55.716Z,6.25
2022-11-10T19:00:36.679Z,6.68
2022-11-10T19:05:17.754Z,6.65
2022-11-10T19:09:59.961Z,7.32
2022-11-10T19:14:41.447Z,8.07
2022-11-10T19:19:23.297Z,7.90
2022-11-10T19:24:04.923Z,7.20
2022-11-10T19:28:46.708Z,6.60
2022-11-10T19:33:30.679Z,6.85
2022-11-10T19:38:11.340Z,6.70
2022-11-10T19:42:52.474Z,5.88
2022-11-10T19:47:33.108Z,6.15
2022-11-10T19:52:13.874Z,6.88
2022-11-10T19:56:54.559Z,6.53
2022-11-10T20:01:37.567Z,7.38
2022-11-10T20:06:23.235Z,6.75
2022-11-10T20:11:10.178Z,7.13
2022-11-10T20:15:51.603Z,6.70
2022-11-10T20:20:33.325Z,7.28
2022-11-10T20:25:14.122Z,7.47
2022-11-10T20:29:55.268Z,7.15
2022-11-10T20:34:36.070Z,6.18
2022-11-10T20:39:18.170Z,7.35
2022-11-10T20:43:59.970Z,7.88
2022-11-10T20:48:40.900Z,7.72
2022-11-10T20:53:22.827Z,8.05
2022-11-10T20:58:04.369Z,7.05
2022-11-10T21:02:45.415Z,8.35
2022-11-10T21:07:27.521Z,7.28
2022-11-10T21:12:31.144Z,7.68
2022-11-10T21:17:12.316Z,7.53
2022-11-10T21:21:54.074Z,8.10
2022-11-10T21:26:35.998Z,7.43
2022-11-10T21:31:18.691Z,7.45
2022-11-10T21:36:07.331Z,6.75
2022-11-10T21:40:47.948Z,7.88
2022-11-10T21:45:28.750Z,7.80
2022-11-10T21:50:10.148Z,7.32
2022-11-10T21:54:58.409Z,7.10
2022-11-10T21:59:38.764Z,7.50
2022-11-10T22:04:19.572Z,6.75
2022-11-10T22:09:00.057Z,6.68
2022-11-10T22:14:02.246Z,6.80
2022-11-10T22:18:55.803Z,6.60
2022-11-10T22:28:56.182Z,7.15
2022-11-10T22:33:43.729Z,7.05
2022-11-10T22:38:39.196Z,6.60
2022-11-10T22:43:56.401Z,6.40
2022-11-10T22:48:37.011Z,6.82
2022-11-10T22:53:17.596Z,6.75
2022-11-10T22:57:58.229Z,7.43
2022-11-10T23:02:38.766Z,6.22
2022-11-10T23:07:19.141Z,6.78
2022-11-10T23:11:59.953Z,6.30
2022-11-10T23:16:40.874Z,6.47
2022-11-10T23:21:24.356Z,5.60
2022-11-10T23:26:07.476Z,5.60
2022-11-10T23:30:47.657Z,5.72
2022-11-10T23:35:27.874Z,5.97
2022-11-10T23:40:09.066Z,5.00
2022-11-10T23:44:49.776Z,5.20
2022-11-10T23:49:30.429Z,5.20
2022-11-10T23:54:11.454Z,5.70
2022-11-10T23:58:52.309Z,4.90
